createdAt,value
2018-09-08T00:00:21.235Z,983.94
2018-09-08T00:01:30.541Z,983.94
2018-09-08T00:02:40.674Z,983.86
2018-09-08T00:03:50.812Z,983.91
2018-09-08T00:05:00.673Z,983.9
2018-09-08T00:06:10.809Z,983.92
2018-09-08T00:07:20.393Z,983.88
2018-09-08T00:08:30.244Z,983.89
2018-09-08T00:09:40.373Z,983.88
2018-09-08T00:10:49.956Z,983.89
2018-09-08T00:11:59.259Z,983.82
2018-09-08T00:13:09.392Z,983.8
2018-09-08T00:14:18.970Z,983.83
2018-09-08T00:15:28.821Z,983.75
2018-09-08T00:16:38.949Z,983.77
2018-09-08T00:17:48.798Z,983.75
2018-09-08T00:18:58.924Z,983.72
2018-09-08T00:20:08.780Z,983.69
2018-09-08T00:21:18.906Z,983.72
2018-09-08T00:22:29.080Z,983.69
2018-09-08T00:23:38.931Z,983.75
2018-09-08T00:24:49.053Z,983.73
2018-09-08T00:25:59.185Z,983.67
2018-09-08T00:27:09.310Z,983.71
2018-09-08T00:28:19.438Z,983.69
2018-09-08T00:29:29.577Z,983.72
2018-09-08T00:30:39.748Z,983.72
2018-09-08T00:31:49.909Z,983.75
2018-09-08T00:32:59.773Z,983.71
2018-09-08T00:34:09.356Z,983.71
2018-09-08T00:35:19.488Z,983.71
2018-09-08T00:36:29.626Z,983.75
2018-09-08T00:37:39.762Z,983.7
2018-09-08T00:38:49.663Z,983.75
2018-09-08T00:39:59.823Z,983.71
2018-09-08T00:41:09.863Z,983.67
2018-09-08T00:42:19.731Z,983.67
2018-09-08T00:43:29.865Z,983.69
2018-09-08T00:44:39.471Z,983.72
2018-09-08T00:45:49.676Z,983.65
2018-09-08T00:46:59.880Z,983.69
2018-09-08T00:48:09.462Z,983.63
2018-09-08T00:49:19.048Z,983.67
2018-09-08T00:50:28.898Z,983.64
2018-09-08T00:51:38.750Z,983.63
2018-09-08T00:52:48.334Z,983.6
2018-09-08T00:53:58.486Z,983.62
2018-09-08T00:55:08.614Z,983.63
2018-09-08T00:56:18.474Z,983.65
2018-09-08T00:57:28.596Z,983.63
2018-09-08T00:58:38.185Z,983.65
2018-09-08T00:59:48.043Z,983.66
2018-09-08T01:00:58.174Z,983.62
2018-09-08T01:02:08.303Z,983.66
2018-09-08T01:03:18.462Z,983.67
2018-09-08T01:04:28.603Z,983.68
2018-09-08T01:05:38.188Z,983.72
2018-09-08T01:06:47.769Z,983.69
2018-09-08T01:07:57.902Z,983.7
2018-09-08T01:09:07.760Z,983.65
2018-09-08T01:10:17.884Z,983.68
2018-09-08T01:11:27.737Z,983.71
2018-09-08T01:12:37.594Z,983.62
2018-09-08T01:13:47.720Z,983.65
2018-09-08T01:14:57.851Z,983.6
2018-09-08T01:16:07.441Z,983.64
2018-09-08T01:17:17.566Z,983.58
2018-09-08T01:18:27.689Z,983.58
2018-09-08T01:19:37.554Z,983.62
2018-09-08T01:20:47.416Z,983.59
2018-09-08T01:21:57.549Z,983.55
2018-09-08T01:23:07.121Z,983.6
2018-09-08T01:24:17.247Z,983.55
2018-09-08T01:25:26.824Z,983.56
2018-09-08T01:26:36.683Z,983.55
2018-09-08T01:27:46.816Z,983.57
2018-09-08T01:28:56.946Z,983.56
2018-09-08T01:30:06.806Z,983.58
2018-09-08T01:31:16.942Z,983.56
2018-09-08T01:32:27.084Z,983.55
2018-09-08T01:33:36.939Z,983.56
2018-09-08T01:34:46.804Z,983.55
2018-09-08T01:35:56.653Z,983.56
2018-09-08T01:37:05.960Z,983.53
2018-09-08T01:38:15.812Z,983.54
2018-09-08T01:39:25.396Z,983.49
2018-09-08T01:40:35.249Z,983.48
2018-09-08T01:41:45.374Z,983.51
2018-09-08T01:42:55.225Z,983.48
2018-09-08T01:44:05.350Z,983.49
2018-09-08T01:45:14.937Z,983.44
2018-09-08T01:46:24.792Z,983.47
2018-09-08T01:47:34.925Z,983.49
2018-09-08T01:48:45.063Z,983.46
2018-09-08T01:49:55.191Z,983.46
2018-09-08T01:51:05.318Z,983.46
2018-09-08T01:52:15.174Z,983.45
2018-09-08T01:53:25.301Z,983.46
2018-09-08T01:54:35.426Z,983.44
2018-09-08T01:55:45.565Z,983.44
2018-09-08T01:56:55.425Z,983.39
2018-09-08T01:58:05.551Z,983.34
2018-09-08T01:59:15.406Z,983.37
2018-09-08T02:00:25.595Z,983.35
2018-09-08T02:01:35.444Z,983.38
2018-09-08T02:02:45.576Z,983.35
2018-09-08T02:03:55.714Z,983.34
2018-09-08T02:05:05.850Z,983.24
2018-09-08T02:06:15.701Z,983.3
2018-09-08T02:07:25.562Z,983.28
2018-09-08T02:08:35.412Z,983.24
2018-09-08T02:09:45.264Z,983.21
2018-09-08T02:10:55.120Z,983.24
2018-09-08T02:12:04.695Z,983.17
2018-09-08T02:13:14.819Z,983.17
2018-09-08T02:14:24.945Z,983.11
2018-09-08T02:15:34.796Z,983.12
2018-09-08T02:16:44.924Z,983.09
2018-09-08T02:17:55.050Z,983
2018-09-08T02:19:04.904Z,983.08
2018-09-08T02:20:14.761Z,983.11
2018-09-08T02:21:24.893Z,983.05
2018-09-08T02:22:35.029Z,983.06
2018-09-08T02:23:44.886Z,983
2018-09-08T02:24:55.021Z,983.02
2018-09-08T02:26:04.876Z,982.97
2018-09-08T02:27:14.460Z,982.95
2018-09-08T02:28:24.584Z,982.95
2018-09-08T02:29:34.720Z,982.93
2018-09-08T02:30:44.850Z,982.95
2018-09-08T02:31:54.723Z,982.92
2018-09-08T02:33:04.862Z,982.95
2018-09-08T02:34:14.994Z,982.91
2018-09-08T02:35:24.852Z,982.94
2018-09-08T02:36:34.722Z,982.92
2018-09-08T02:37:44.298Z,982.89
2018-09-08T02:38:56.151Z,982.85
2018-09-08T02:40:05.725Z,982.82
2018-09-08T02:41:15.592Z,982.88
2018-09-08T02:42:25.721Z,982.83
2018-09-08T02:43:35.307Z,982.81
2018-09-08T02:44:45.435Z,982.85
2018-09-08T02:45:55.293Z,982.8
2018-09-08T02:47:05.438Z,982.82
2018-09-08T02:48:15.563Z,982.82
2018-09-08T02:49:25.417Z,982.79
2018-09-08T02:50:35.003Z,982.83
2018-09-08T02:51:45.140Z,982.79
2018-09-08T02:52:54.994Z,982.77
2018-09-08T02:54:04.855Z,982.77
2018-09-08T02:55:14.714Z,982.79
2018-09-08T02:56:24.580Z,982.78
2018-09-08T02:57:34.433Z,982.73
2018-09-08T02:58:44.022Z,982.73
2018-09-08T02:59:54.151Z,982.7
2018-09-08T03:01:04.011Z,982.69
2018-09-08T03:02:14.142Z,982.68
2018-09-08T03:03:23.448Z,982.64
2018-09-08T03:04:33.299Z,982.62
2018-09-08T03:05:43.164Z,982.62
2018-09-08T03:06:53.295Z,982.62
2018-09-08T03:08:03.148Z,982.63
2018-09-08T03:09:13.280Z,982.62
2018-09-08T03:10:23.416Z,982.59
2018-09-08T03:11:33.556Z,982.6
2018-09-08T03:12:43.137Z,982.55
2018-09-08T03:13:53.266Z,982.59
2018-09-08T03:15:03.121Z,982.58
2018-09-08T03:16:12.984Z,982.55
2018-09-08T03:17:22.838Z,982.57
2018-09-08T03:18:32.962Z,982.57
2018-09-08T03:19:43.088Z,982.61
2018-09-08T03:20:52.945Z,982.61
2018-09-08T03:22:03.069Z,982.59
2018-09-08T03:23:13.199Z,982.59
2018-09-08T03:24:22.779Z,982.57
2018-09-08T03:25:32.636Z,982.6
2018-09-08T03:26:42.487Z,982.61
2018-09-08T03:27:52.621Z,982.58
2018-09-08T03:29:02.751Z,982.56
2018-09-08T03:30:12.330Z,982.61
2018-09-08T03:31:22.187Z,982.57
2018-09-08T03:32:32.315Z,982.57
2018-09-08T03:33:42.170Z,982.56
2018-09-08T03:34:52.029Z,982.54
2018-09-08T03:36:02.164Z,982.53
2018-09-08T03:37:11.740Z,982.5
2018-09-08T03:38:21.875Z,982.49
2018-09-08T03:39:31.450Z,982.47
2018-09-08T03:40:41.312Z,982.48
2018-09-08T03:41:51.436Z,982.46
2018-09-08T03:43:01.290Z,982.45
2018-09-08T03:44:11.422Z,982.41
2018-09-08T03:45:21.303Z,982.44
2018-09-08T03:46:31.439Z,982.43
2018-09-08T03:47:41.565Z,982.47
2018-09-08T03:48:51.690Z,982.44
2018-09-08T03:50:01.551Z,982.44
2018-09-08T03:51:11.691Z,982.48
2018-09-08T03:52:21.546Z,982.49
2018-09-08T03:53:31.399Z,982.44
2018-09-08T03:54:41.527Z,982.45
2018-09-08T03:55:51.656Z,982.46
2018-09-08T03:57:01.784Z,982.45
2018-09-08T03:58:11.915Z,982.43
2018-09-08T03:59:21.766Z,982.43
2018-09-08T04:00:31.667Z,982.43
2018-09-08T04:01:41.803Z,982.39
2018-09-08T04:02:51.664Z,982.4
2018-09-08T04:04:01.518Z,982.38
2018-09-08T04:05:11.645Z,982.37
2018-09-08T04:06:21.498Z,982.35
2018-09-08T04:07:31.630Z,982.37
2018-09-08T04:08:41.767Z,982.31
2018-09-08T04:09:51.897Z,982.36
2018-09-08T04:11:01.756Z,982.26
2018-09-08T04:12:12.047Z,982.29
2018-09-08T04:13:22.169Z,982.28
2018-09-08T04:14:32.303Z,982.24
2018-09-08T04:15:42.431Z,982.26
2018-09-08T04:16:52.286Z,982.24
2018-09-08T04:18:02.173Z,982.23
2018-09-08T04:19:12.856Z,982.21
2018-09-08T04:20:22.982Z,982.17
2018-09-08T04:21:33.123Z,982.18
2018-09-08T04:22:43.264Z,982.16
2018-09-08T04:23:53.411Z,982.12
2018-09-08T04:25:03.470Z,982.17
2018-09-08T04:26:13.048Z,982.13
2018-09-08T04:27:22.906Z,982.16
2018-09-08T04:28:33.046Z,982.15
2018-09-08T04:29:43.179Z,982.15
2018-09-08T04:30:53.040Z,982.13
2018-09-08T04:32:02.346Z,982.12
2018-09-08T04:33:12.197Z,982.12
2018-09-08T04:34:22.332Z,982.1
2018-09-08T04:35:32.191Z,982.1
2018-09-08T04:36:42.319Z,982.08
2018-09-08T04:37:52.175Z,982.09
2018-09-08T04:39:02.363Z,982.07
2018-09-08T04:40:12.216Z,982.05
2018-09-08T04:41:22.072Z,982.08
2018-09-08T04:42:32.206Z,982.02
2018-09-08T04:43:42.334Z,982.01
2018-09-08T04:44:52.191Z,982.02
2018-09-08T04:46:02.048Z,982.04
2018-09-08T04:47:12.175Z,981.97
2018-09-08T04:48:22.307Z,982.01
2018-09-08T04:49:32.435Z,982
2018-09-08T04:50:42.340Z,981.99
2018-09-08T04:51:52.470Z,982
2018-09-08T04:53:02.052Z,981.99
2018-09-08T04:54:11.357Z,981.96
2018-09-08T04:55:20.942Z,981.93
2018-09-08T04:56:31.071Z,981.98
2018-09-08T04:57:41.200Z,981.97
2018-09-08T04:58:51.333Z,981.99
2018-09-08T05:00:01.459Z,981.98
2018-09-08T05:01:11.329Z,981.97
2018-09-08T05:02:21.190Z,981.96
2018-09-08T05:03:31.369Z,981.98
2018-09-08T05:04:41.503Z,981.94
2018-09-08T05:05:51.632Z,981.93
2018-09-08T05:07:01.756Z,981.9
2018-09-08T05:08:11.336Z,981.93
2018-09-08T05:09:21.468Z,981.91
2018-09-08T05:10:31.604Z,981.91
2018-09-08T05:11:41.730Z,981.93
2018-09-08T05:12:51.860Z,981.91
2018-09-08T05:14:01.984Z,981.9
2018-09-08T05:15:11.835Z,981.94
2018-09-08T05:16:21.699Z,981.91
2018-09-08T05:17:31.002Z,981.89
2018-09-08T05:18:40.310Z,981.9
2018-09-08T05:19:50.165Z,981.84
2018-09-08T05:21:00.023Z,981.87
2018-09-08T05:22:09.334Z,981.89
2018-09-08T05:23:19.474Z,981.87
2018-09-08T05:24:29.602Z,981.8
2018-09-08T05:25:39.467Z,981.83
2018-09-08T05:26:49.596Z,981.83
2018-09-08T05:27:59.456Z,981.82
2018-09-08T05:29:09.581Z,981.82
2018-09-08T05:30:19.432Z,981.83
2018-09-08T05:31:29.573Z,981.85
2018-09-08T05:32:39.423Z,981.82
2018-09-08T05:33:49.276Z,981.84
2018-09-08T05:34:59.189Z,981.8
2018-09-08T05:36:09.340Z,981.84
2018-09-08T05:37:19.471Z,981.82
2018-09-08T05:38:29.601Z,981.85
2018-09-08T05:39:39.732Z,981.82
2018-09-08T05:40:49.596Z,981.81
2018-09-08T05:41:58.903Z,981.78
2018-09-08T05:43:09.026Z,981.8
2018-09-08T05:44:18.884Z,981.8
2018-09-08T05:45:29.015Z,981.79
2018-09-08T05:46:38.872Z,981.74
2018-09-08T05:47:48.730Z,981.72
2018-09-08T05:48:58.931Z,981.72
2018-09-08T05:50:09.136Z,981.73
2018-09-08T05:51:18.717Z,981.72
2018-09-08T05:52:28.852Z,981.73
2018-09-08T05:53:38.994Z,981.75
2018-09-08T05:54:49.128Z,981.71
2018-09-08T05:55:58.987Z,981.76
2018-09-08T05:57:09.115Z,981.7
2018-09-08T05:58:18.990Z,981.72
2018-09-08T05:59:29.205Z,981.73
2018-09-08T06:00:39.064Z,981.71
2018-09-08T06:01:48.921Z,981.69
2018-09-08T06:02:58.779Z,981.71
2018-09-08T06:04:08.905Z,981.65
2018-09-08T06:05:18.763Z,981.68
2018-09-08T06:06:28.621Z,981.67
2018-09-08T06:07:38.753Z,981.68
2018-09-08T06:08:48.888Z,981.69
2018-09-08T06:09:59.018Z,981.68
2018-09-08T06:11:08.612Z,981.68
2018-09-08T06:12:18.199Z,981.67
2018-09-08T06:13:28.051Z,981.66
2018-09-08T06:14:38.195Z,981.68
2018-09-08T06:15:48.333Z,981.65
2018-09-08T06:16:58.184Z,981.66
2018-09-08T06:18:08.377Z,981.65
2018-09-08T06:19:18.562Z,981.58
2018-09-08T06:20:28.745Z,981.58
2018-09-08T06:21:38.878Z,981.59
2018-09-08T06:22:48.734Z,981.61
2018-09-08T06:23:58.588Z,981.61
2018-09-08T06:25:08.720Z,981.52
2018-09-08T06:26:18.596Z,981.5
2018-09-08T06:27:28.216Z,981.41
2018-09-08T06:28:38.013Z,981.54
2018-09-08T06:29:48.917Z,981.47
2018-09-08T06:30:59.043Z,981.48
2018-09-08T06:32:08.904Z,981.53
2018-09-08T06:33:18.796Z,981.51
2018-09-08T06:34:29.007Z,981.48
2018-09-08T06:35:38.863Z,981.51
2018-09-08T06:36:48.991Z,981.54
2018-09-08T06:37:58.858Z,981.51
2018-09-08T06:39:08.725Z,981.54
2018-09-08T06:40:18.860Z,981.57
2018-09-08T06:41:28.986Z,981.55
2018-09-08T06:42:51.300Z,981.58
2018-09-08T06:44:01.282Z,981.59
2018-09-08T06:45:10.843Z,981.58
2018-09-08T06:46:21.244Z,981.53
2018-09-08T06:47:31.097Z,981.49
2018-09-08T06:48:40.951Z,981.47
2018-09-08T06:49:51.087Z,981.43
2018-09-08T06:51:00.951Z,981.43
2018-09-08T06:52:11.181Z,981.43
2018-09-08T06:53:22.099Z,981.43
2018-09-08T06:54:33.955Z,981.47
2018-09-08T06:55:43.814Z,981.43
2018-09-08T06:56:53.946Z,981.43
2018-09-08T06:58:04.140Z,981.44
2018-09-08T06:59:13.387Z,981.45
2018-09-08T07:00:23.518Z,981.39
2018-09-08T07:01:33.647Z,981.43
2018-09-08T07:02:43.503Z,981.43
2018-09-08T07:03:53.629Z,981.41
2018-09-08T07:05:03.207Z,981.41
2018-09-08T07:06:13.075Z,981.43
2018-09-08T07:07:23.201Z,981.4
2018-09-08T07:08:33.395Z,981.4
2018-09-08T07:09:43.255Z,981.41
2018-09-08T07:10:53.109Z,981.32
2018-09-08T07:12:03.303Z,981.27
2018-09-08T07:13:13.158Z,981.29
2018-09-08T07:14:23.286Z,981.27
2018-09-08T07:15:32.869Z,981.26
2018-09-08T07:16:42.998Z,981.27
2018-09-08T07:17:53.127Z,981.27
2018-09-08T07:19:02.707Z,981.26
2018-09-08T07:20:12.835Z,981.25
2018-09-08T07:21:22.970Z,981.15
2018-09-08T07:22:32.829Z,981.27
2018-09-08T07:23:42.415Z,981.24
2018-09-08T07:24:52.003Z,981.25
2018-09-08T07:26:01.925Z,981.19
2018-09-08T07:27:11.230Z,981.16
2018-09-08T07:28:21.081Z,981.22
2018-09-08T07:29:39.126Z,981.25
2018-09-08T07:30:48.707Z,981.2
2018-09-08T07:31:59.046Z,981.2
2018-09-08T07:33:08.629Z,981.22
2018-09-08T07:34:18.768Z,981.23
2018-09-08T07:35:28.625Z,981.28
2018-09-08T07:36:38.749Z,981.24
2018-09-08T07:37:48.608Z,981.26
2018-09-08T07:38:58.745Z,981.28
2018-09-08T07:40:08.604Z,981.21
2018-09-08T07:41:18.731Z,981.26
2018-09-08T07:42:28.599Z,981.25
2018-09-08T07:43:38.464Z,981.23
2018-09-08T07:44:48.322Z,981.21
2018-09-08T07:45:58.186Z,981.21
2018-09-08T07:47:07.995Z,981.24
2018-09-08T07:48:18.124Z,981.25
2018-09-08T07:49:27.980Z,981.22
2018-09-08T07:50:38.108Z,981.18
2018-09-08T07:51:48.243Z,981.2
2018-09-08T07:52:58.383Z,981.16
2018-09-08T07:54:08.653Z,981.15
2018-09-08T07:55:18.327Z,981.17
2018-09-08T07:56:28.674Z,981.14
2018-09-08T07:57:38.529Z,981.17
2018-09-08T07:58:48.657Z,981.24
2018-09-08T07:59:58.515Z,981.18
2018-09-08T08:01:08.379Z,981.18
2018-09-08T08:02:18.237Z,981.2
2018-09-08T08:03:28.375Z,981.19
2018-09-08T08:04:38.241Z,981.24
2018-09-08T08:05:48.091Z,981.21
2018-09-08T08:06:57.941Z,981.28
2018-09-08T08:08:07.800Z,981.24
2018-09-08T08:09:17.928Z,981.22
2018-09-08T08:10:27.013Z,981.21
2018-09-08T08:11:37.140Z,981.18
2018-09-08T08:12:47.003Z,981.15
2018-09-08T08:13:56.861Z,981.19
2018-09-08T08:15:06.731Z,981.19
2018-09-08T08:16:16.860Z,981.13
2018-09-08T08:17:26.717Z,981.19
2018-09-08T08:18:36.847Z,981.16
2018-09-08T08:19:46.971Z,981.14
2018-09-08T08:20:56.557Z,981.12
2018-09-08T08:22:06.408Z,981.12
2018-09-08T08:23:16.570Z,981.17
2018-09-08T08:24:26.677Z,981.15
2018-09-08T08:25:36.543Z,981.18
2018-09-08T08:26:46.680Z,981.17
2018-09-08T08:27:56.531Z,981.1
2018-09-08T08:29:06.390Z,981.15
2018-09-08T08:30:16.525Z,981.17
2018-09-08T08:31:26.655Z,981.14
2018-09-08T08:32:36.233Z,981.1
2018-09-08T08:33:46.363Z,981.1
2018-09-08T08:34:56.506Z,981.16
2018-09-08T08:36:06.631Z,981.11
2018-09-08T08:37:16.277Z,981.14
2018-09-08T08:38:26.023Z,981.14
2018-09-08T08:39:38.157Z,981.14
2018-09-08T08:40:48.016Z,981.16
2018-09-08T08:41:58.143Z,981.16
2018-09-08T08:43:08.065Z,981.18
2018-09-08T08:44:17.816Z,981.13
2018-09-08T08:45:27.990Z,981.09
2018-09-08T08:46:37.840Z,981.1
2018-09-08T08:47:47.969Z,981.09
2018-09-08T08:48:58.099Z,981.11
2018-09-08T08:50:08.223Z,981.07
2018-09-08T08:51:18.073Z,981.04
2018-09-08T08:52:28.285Z,981.05
2018-09-08T08:53:38.329Z,981.06
2018-09-08T08:54:48.188Z,981.1
2018-09-08T08:55:58.040Z,981.04
2018-09-08T08:57:07.625Z,981.02
2018-09-08T08:58:17.487Z,981.01
2018-09-08T08:59:27.338Z,981.05
2018-09-08T09:00:37.458Z,981.07
2018-09-08T09:01:47.589Z,981.05
2018-09-08T09:02:57.457Z,981.03
2018-09-08T09:04:07.319Z,981
2018-09-08T09:05:17.445Z,980.98
2018-09-08T09:06:27.024Z,981.09
2018-09-08T09:07:37.154Z,981.05
2018-09-08T09:08:49.807Z,981.04
2018-09-08T09:10:00.163Z,981.05
2018-09-08T09:11:09.191Z,981.04
2018-09-08T09:12:19.319Z,981.05
2018-09-08T09:13:28.727Z,981.04
2018-09-08T09:14:40.127Z,981.05
2018-09-08T09:15:50.470Z,980.97
2018-09-08T09:17:00.320Z,980.97
2018-09-08T09:18:10.171Z,980.98
2018-09-08T09:19:20.081Z,980.94
2018-09-08T09:20:29.930Z,981
2018-09-08T09:21:40.063Z,981.02
2018-09-08T09:22:49.919Z,981
2018-09-08T09:24:00.070Z,980.97
2018-09-08T09:25:10.397Z,980.91
2018-09-08T09:26:20.357Z,980.96
2018-09-08T09:27:30.214Z,980.99
2018-09-08T09:28:40.069Z,980.95
2018-09-08T09:29:50.195Z,981
2018-09-08T09:31:00.321Z,980.95
2018-09-08T09:32:10.173Z,981.02
2018-09-08T09:33:20.300Z,981
2018-09-08T09:34:29.878Z,981
2018-09-08T09:35:40.015Z,980.97
2018-09-08T09:36:49.864Z,980.92
2018-09-08T09:37:59.991Z,980.92
2018-09-08T09:39:09.571Z,980.87
2018-09-08T09:40:19.434Z,980.88
2018-09-08T09:41:29.562Z,980.92
2018-09-08T09:42:38.864Z,980.92
2018-09-08T09:43:48.993Z,980.9
2018-09-08T09:44:58.850Z,980.82
2018-09-08T09:46:08.995Z,980.79
2018-09-08T09:47:18.578Z,980.78
2018-09-08T09:48:28.702Z,980.83
2018-09-08T09:49:38.567Z,980.86
2018-09-08T09:50:48.698Z,980.88
2018-09-08T09:51:58.834Z,980.99
2018-09-08T09:53:08.828Z,980.96
2018-09-08T09:54:19.456Z,980.93
2018-09-08T09:55:29.039Z,980.92
2018-09-08T09:56:38.629Z,980.94
2018-09-08T09:57:48.487Z,980.93
2018-09-08T09:58:58.065Z,980.87
2018-09-08T10:00:08.198Z,980.9
2018-09-08T10:01:18.069Z,980.85
2018-09-08T10:02:28.201Z,980.87
2018-09-08T10:03:38.057Z,980.92
2018-09-08T10:04:47.917Z,980.93
2018-09-08T10:05:58.053Z,980.92
2018-09-08T10:07:08.233Z,980.94
2018-09-08T10:08:18.357Z,980.92
2018-09-08T10:09:27.945Z,980.93
2018-09-08T10:10:38.075Z,980.94
2018-09-08T10:11:47.654Z,980.94
2018-09-08T10:12:58.837Z,980.93
2018-09-08T10:14:09.653Z,980.91
2018-09-08T10:15:19.231Z,980.9
2018-09-08T10:16:29.358Z,980.9
2018-09-08T10:17:38.935Z,980.94
2018-09-08T10:18:49.059Z,980.93
2018-09-08T10:19:58.638Z,980.96
2018-09-08T10:21:08.495Z,980.98
2018-09-08T10:22:18.347Z,980.9
2018-09-08T10:23:28.291Z,980.96
2018-09-08T10:24:38.174Z,980.99
2018-09-08T10:25:48.028Z,980.95
2018-09-08T10:26:57.336Z,980.88
2018-09-08T10:28:06.918Z,980.94
2018-09-08T10:29:16.780Z,981.01
2018-09-08T10:30:26.674Z,981.09
2018-09-08T10:31:36.241Z,981.11
2018-09-08T10:32:46.532Z,981.07
2018-09-08T10:33:56.663Z,981.12
2018-09-08T10:35:05.971Z,981.14
2018-09-08T10:36:16.104Z,981.14
2018-09-08T10:37:25.411Z,981.13
2018-09-08T10:38:35.546Z,981.21
2018-09-08T10:39:45.404Z,981.21
2018-09-08T10:40:55.532Z,981.15
2018-09-08T10:42:04.848Z,981.16
2018-09-08T10:43:14.154Z,981.1
2018-09-08T10:44:23.734Z,981.12
2018-09-08T10:45:33.591Z,981.19
2018-09-08T10:46:43.720Z,981.24
2018-09-08T10:48:01.488Z,981.28
2018-09-08T10:49:11.348Z,981.24
2018-09-08T10:50:20.654Z,981.27
2018-09-08T10:51:30.505Z,981.29
2018-09-08T10:52:40.098Z,981.33
2018-09-08T10:53:50.234Z,981.36
2018-09-08T10:55:00.090Z,981.36
2018-09-08T10:56:10.231Z,981.3
2018-09-08T10:57:20.093Z,981.33
2018-09-08T10:58:30.223Z,981.2
2018-09-08T10:59:40.357Z,981.19
2018-09-08T11:00:50.488Z,981.17
2018-09-08T11:02:00.770Z,981.19
2018-09-08T11:03:13.184Z,981.26
2018-09-08T11:04:23.044Z,981.32
2018-09-08T11:05:32.909Z,981.38
2018-09-08T11:06:43.053Z,981.54
2018-09-08T11:07:52.910Z,981.61
2018-09-08T11:09:02.765Z,981.7
2018-09-08T11:10:12.617Z,981.73
2018-09-08T11:11:22.798Z,981.7
2018-09-08T11:12:32.375Z,981.7
2018-09-08T11:13:42.505Z,981.69
2018-09-08T11:14:52.357Z,981.69
2018-09-08T11:16:02.232Z,981.64
2018-09-08T11:17:11.821Z,981.53
2018-09-08T11:18:21.958Z,981.53
2018-09-08T11:19:31.808Z,981.53
2018-09-08T11:20:41.952Z,981.55
2018-09-08T11:21:52.081Z,981.58
2018-09-08T11:23:01.980Z,981.67
2018-09-08T11:24:11.838Z,981.65
2018-09-08T11:25:21.697Z,981.7
2018-09-08T11:26:31.819Z,981.76
2018-09-08T11:27:41.952Z,981.76
2018-09-08T11:28:52.126Z,981.77
2018-09-08T11:30:02.273Z,981.7
2018-09-08T11:31:12.183Z,981.63
2018-09-08T11:32:22.053Z,981.54
2018-09-08T11:33:31.912Z,981.54
2018-09-08T11:34:45.828Z,981.6
2018-09-08T11:35:55.695Z,981.68
2018-09-08T11:37:05.563Z,981.74
2018-09-08T11:38:15.561Z,981.75
2018-09-08T11:39:25.578Z,981.73
2018-09-08T11:40:35.710Z,981.66
2018-09-08T11:41:45.566Z,981.61
2018-09-08T11:42:55.694Z,981.67
2018-09-08T11:44:05.274Z,981.7
2018-09-08T11:45:15.127Z,981.82
2018-09-08T11:46:24.704Z,981.9
2018-09-08T11:47:34.561Z,981.94
2018-09-08T11:48:44.708Z,981.97
2018-09-08T11:49:54.839Z,981.98
2018-09-08T11:51:04.424Z,981.94
2018-09-08T11:52:14.606Z,981.99
2018-09-08T11:53:24.456Z,982.03
2018-09-08T11:54:34.304Z,982.01
2018-09-08T11:55:44.468Z,981.94
2018-09-08T11:56:54.511Z,981.98
2018-09-08T11:58:06.371Z,982
2018-09-08T11:59:16.552Z,982
2018-09-08T12:00:26.240Z,981.98
2018-09-08T12:01:36.374Z,981.88
2018-09-08T12:02:46.512Z,981.91
2018-09-08T12:03:56.219Z,981.93
2018-09-08T12:05:06.349Z,981.84
2018-09-08T12:06:16.502Z,981.85
2018-09-08T12:07:26.950Z,981.95
2018-09-08T12:08:36.526Z,981.96
2018-09-08T12:09:46.531Z,981.96
2018-09-08T12:10:56.125Z,981.99
2018-09-08T12:12:06.267Z,981.9
2018-09-08T12:13:16.118Z,981.93
2018-09-08T12:14:26.253Z,981.89
2018-09-08T12:15:35.886Z,981.83
2018-09-08T12:16:46.014Z,981.8
2018-09-08T12:17:56.176Z,981.81
2018-09-08T12:19:06.092Z,981.85
2018-09-08T12:20:16.281Z,981.84
2018-09-08T12:21:26.186Z,981.84
2018-09-08T12:22:36.310Z,981.82
2018-09-08T12:23:45.347Z,981.83
2018-09-08T12:24:54.653Z,981.89
2018-09-08T12:26:04.227Z,981.94
2018-09-08T12:27:13.804Z,981.96
2018-09-08T12:28:23.654Z,981.94
2018-09-08T12:29:32.961Z,981.9
2018-09-08T12:30:42.926Z,981.88
2018-09-08T12:31:52.348Z,981.83
2018-09-08T12:33:01.700Z,981.87
2018-09-08T12:34:11.301Z,981.79
2018-09-08T12:35:21.432Z,981.77
2018-09-08T12:36:30.465Z,981.78
2018-09-08T12:37:40.585Z,981.74
2018-09-08T12:38:49.509Z,981.71
2018-09-08T12:39:59.686Z,981.7
2018-09-08T12:41:09.271Z,981.75
2018-09-08T12:42:18.848Z,981.81
2018-09-08T12:43:28.971Z,981.78
2018-09-08T12:44:39.094Z,981.89
2018-09-08T12:45:49.233Z,981.86
2018-09-08T12:46:59.539Z,981.95
2018-09-08T12:48:08.843Z,981.89
2018-09-08T12:49:18.697Z,981.9
2018-09-08T12:50:28.824Z,981.9
2018-09-08T12:51:38.953Z,981.85
2018-09-08T12:52:49.081Z,981.83
2018-09-08T12:53:58.661Z,981.87
2018-09-08T12:55:08.807Z,981.86
2018-09-08T12:56:18.677Z,981.89
2018-09-08T12:57:28.805Z,981.9
2018-09-08T12:58:38.933Z,981.95
2018-09-08T12:59:49.078Z,981.95
2018-09-08T13:00:58.935Z,982
2018-09-08T13:02:08.796Z,982.03
2018-09-08T13:03:18.972Z,982.09
2018-09-08T13:04:28.830Z,982.14
2018-09-08T13:05:38.701Z,982.11
2018-09-08T13:06:48.285Z,982.12
2018-09-08T13:07:58.473Z,982.08
2018-09-08T13:09:08.383Z,982.11
2018-09-08T13:10:18.516Z,982.1
2018-09-08T13:11:28.372Z,982.13
2018-09-08T13:12:38.504Z,982.18
2018-09-08T13:13:48.640Z,982.22
2018-09-08T13:14:58.499Z,982.24
2018-09-08T13:16:08.637Z,982.23
2018-09-08T13:17:18.229Z,982.2
2018-09-08T13:18:28.086Z,982.18
2018-09-08T13:19:37.949Z,982.15
2018-09-08T13:20:48.079Z,982.13
2018-09-08T13:21:58.209Z,982.11
2018-09-08T13:23:08.072Z,982.12
2018-09-08T13:24:18.206Z,982.16
2018-09-08T13:25:28.410Z,982.09
2018-09-08T13:26:38.320Z,982.06
2018-09-08T13:27:48.450Z,982.1
2018-09-08T13:28:57.487Z,982.13
2018-09-08T13:30:07.081Z,982.12
2018-09-08T13:31:16.940Z,982.08
2018-09-08T13:32:26.811Z,982.11
2018-09-08T13:33:36.943Z,982.17
2018-09-08T13:34:47.066Z,982.18
2018-09-08T13:35:56.919Z,982.16
2018-09-08T13:37:07.047Z,982.14
2018-09-08T13:38:16.903Z,982.12
2018-09-08T13:39:26.506Z,982.15
2018-09-08T13:40:36.460Z,982.08
2018-09-08T13:41:46.318Z,982.03
2018-09-08T13:42:56.235Z,981.99
2018-09-08T13:44:06.383Z,982.03
2018-09-08T13:45:16.241Z,982.08
2018-09-08T13:46:26.109Z,982.09
2018-09-08T13:47:35.968Z,982.1
2018-09-08T13:48:45.833Z,982.13
2018-09-08T13:49:55.963Z,982.16
2018-09-08T13:51:06.104Z,982.12
2018-09-08T13:52:15.967Z,982.09
2018-09-08T13:53:25.550Z,982.05
2018-09-08T13:54:35.137Z,982.03
2018-09-08T13:55:45.274Z,982.03
2018-09-08T13:56:55.409Z,982
2018-09-08T13:58:05.020Z,982.02
2018-09-08T13:59:15.157Z,982.05
2018-09-08T14:00:25.302Z,982.06
2018-09-08T14:01:35.437Z,982.07
2018-09-08T14:02:45.573Z,982.05
2018-09-08T14:03:55.707Z,982.07
2018-09-08T14:05:05.691Z,982.13
2018-09-08T14:06:15.885Z,982.13
2018-09-08T14:07:25.745Z,982.1
2018-09-08T14:08:35.879Z,982.1
2018-09-08T14:09:45.733Z,982.17
2018-09-08T14:10:55.866Z,982.13
2018-09-08T14:12:09.109Z,982.31
2018-09-08T14:13:18.691Z,982.47
2018-09-08T14:14:28.550Z,982.24
2018-09-08T14:15:38.470Z,982.23
2018-09-08T14:16:48.057Z,982.48
2018-09-08T14:17:57.914Z,982.64
2018-09-08T14:19:07.496Z,982.41
2018-09-08T14:20:17.628Z,982.23
2018-09-08T14:21:26.938Z,982.2
2018-09-08T14:22:36.793Z,982.18
2018-09-08T14:23:46.696Z,982.15
2018-09-08T14:24:56.007Z,982.4
2018-09-08T14:26:05.868Z,982.21
2018-09-08T14:27:15.719Z,983.02
2018-09-08T14:28:25.362Z,983
2018-09-08T14:29:35.513Z,982.91
2018-09-08T14:30:45.370Z,982.34
2018-09-08T14:31:55.500Z,982.93
2018-09-08T14:33:05.642Z,982.91
2018-09-08T14:34:14.949Z,982.93
2018-09-08T14:35:25.139Z,982.93
2018-09-08T14:36:35.016Z,982.92
2018-09-08T14:37:45.447Z,982.9